Grizzly, Oregon
Current Conditions -  °F | °C
As of 3:55 PM on Friday 24 Oct 2014 (Local Time) from KS39 Reporting Station
Few Clouds Few Clouds  
Wind Chill: 55°   Ceiling: Unl
Heat Index: 55°   Visibility: 10mi
Dew Point: 48°   Wind: 6mph
Humidity: 77%   Direction: 60°ENE
Pressure: 29.92"   Gusts: NA
Location:  44.5°N, 120.92°W
Report Text: KS39 242255Z AUTO 06005KT 10SM FEW110 13/09 A2992 RMK AO2
Loading
Personal Weather Stations






























Interactive Weather Map New forecast layout! Learn more

10-Day Weather Forecast

Advertisements
Track Severe Weather on mobile